Clearfork, Virginia
Current Conditions -  °F | °C
As of 2:52 PM on Thursday 27 Nov 2014 (Local Time) from KBLF Reporting Station
Overcast Overcast  
Wind Chill: 20°   Ceiling: 1300
Heat Index: 30°   Visibility: 10mi
Dew Point: 23°   Wind: 13mph
Humidity: 75%   Direction: 290°WNW
Pressure: 30.1"   Gusts: 22mph
Location:  37.1593°N, 81.1986°W
Report Text: KBLF 271952Z AUTO 29011G19KT 10SM OVC013 M01/M05 A3010 RMK AO2 SLP209 T10111050 $
Loading
Personal Weather Stations






























Interactive Weather Map New forecast layout! Learn more

10-Day Weather Forecast

Advertisements
Track Severe Weather on mobile